createdAt,value
2023-02-23T00:03:56.895Z,17.10
2023-02-23T00:09:02.210Z,17.10
2023-02-23T00:14:05.935Z,17.10
2023-02-23T00:19:09.284Z,17.00
2023-02-23T00:24:16.848Z,17.00
2023-02-23T00:29:22.891Z,16.90
2023-02-23T00:34:26.240Z,16.90
2023-02-23T00:39:30.983Z,16.90
2023-02-23T00:44:35.046Z,16.80
2023-02-23T00:49:39.520Z,16.80
2023-02-23T00:54:44.499Z,16.80
2023-02-23T00:59:47.790Z,16.70
2023-02-23T01:04:52.063Z,16.70
2023-02-23T01:09:56.798Z,16.70
2023-02-23T01:15:00.198Z,16.60
2023-02-23T01:20:08.072Z,16.60
2023-02-23T01:25:13.502Z,16.50
2023-02-23T01:30:17.263Z,16.50
2023-02-23T01:35:20.612Z,16.50
2023-02-23T01:40:29.896Z,16.50
2023-02-23T01:45:35.868Z,16.40
2023-02-23T01:50:45.195Z,16.40
2023-02-23T01:55:55.133Z,16.40
2023-02-23T02:01:02.554Z,16.40
2023-02-23T02:06:09.804Z,16.30
2023-02-23T02:11:26.216Z,16.30
2023-02-23T02:16:55.844Z,16.30
2023-02-23T02:22:32.767Z,16.30
2023-02-23T02:27:58.647Z,16.30
2023-02-23T02:33:53.355Z,16.20
2023-02-23T02:39:08.062Z,16.20
2023-02-23T02:44:18.951Z,16.20
2023-02-23T02:49:30.680Z,16.20
2023-02-23T02:54:41.154Z,16.20
2023-02-23T03:00:03.177Z,16.20
2023-02-23T03:05:32.628Z,16.10
2023-02-23T03:11:01.200Z,16.10
2023-02-23T03:16:39.572Z,16.10
2023-02-23T03:22:08.032Z,16.10
2023-02-23T03:27:41.790Z,16.10
2023-02-23T03:33:07.199Z,16.10
2023-02-23T03:38:33.140Z,16.10
2023-02-23T03:44:00.645Z,16.10
2023-02-23T03:49:23.749Z,16.10
2023-02-23T03:54:49.663Z,16.10
2023-02-23T04:00:16.439Z,16.00
2023-02-23T04:05:39.646Z,16.00
2023-02-23T04:11:06.627Z,16.00
2023-02-23T04:16:11.981Z,16.00
2023-02-23T04:21:15.262Z,16.00
2023-02-23T04:26:18.574Z,16.00
2023-02-23T04:31:25.391Z,16.00
2023-02-23T04:36:28.958Z,15.90
2023-02-23T04:41:32.273Z,15.90
2023-02-23T04:46:37.531Z,15.90
2023-02-23T04:51:40.892Z,15.90
2023-02-23T04:56:44.173Z,15.90
2023-02-23T05:01:49.595Z,15.80
2023-02-23T05:06:53.424Z,15.80
2023-02-23T05:11:56.757Z,15.80
2023-02-23T05:17:01.539Z,15.80
2023-02-23T05:22:05.237Z,15.70
2023-02-23T05:27:09.389Z,15.70
2023-02-23T05:32:14.146Z,15.70
2023-02-23T05:37:17.439Z,15.70
2023-02-23T05:42:20.974Z,15.60
2023-02-23T05:47:25.715Z,15.60
2023-02-23T05:52:29.021Z,15.60
2023-02-23T05:57:32.409Z,15.60
2023-02-23T06:02:37.618Z,15.60
2023-02-23T06:07:40.983Z,15.60
2023-02-23T06:12:44.256Z,15.60
2023-02-23T06:17:48.941Z,15.60
2023-02-23T06:22:52.262Z,15.60
2023-02-23T06:27:55.572Z,15.60
2023-02-23T06:33:00.301Z,15.60
2023-02-23T06:38:04.697Z,15.60
2023-02-23T06:43:08.084Z,15.60
2023-02-23T06:48:12.934Z,15.60
2023-02-23T06:53:16.324Z,15.60
2023-02-23T06:58:19.642Z,15.60
2023-02-23T07:03:24.780Z,15.60
2023-02-23T07:08:28.243Z,15.60
2023-02-23T07:13:31.623Z,15.60
2023-02-23T07:18:36.635Z,15.60
2023-02-23T07:23:40.089Z,15.60
2023-02-23T07:28:44.033Z,15.60
2023-02-23T07:33:48.707Z,15.60
2023-02-23T07:38:52.243Z,15.60
2023-02-23T07:43:55.626Z,15.70
2023-02-23T07:49:00.380Z,15.70
2023-02-23T07:54:05.843Z,15.70
2023-02-23T07:59:26.113Z,15.70
2023-02-23T08:04:32.122Z,15.70
2023-02-23T08:09:36.014Z,15.70
2023-02-23T08:14:39.349Z,15.80
2023-02-23T08:19:44.076Z,15.70
2023-02-23T08:24:47.437Z,15.80
2023-02-23T08:29:52.585Z,15.90
2023-02-23T08:34:57.982Z,15.90
2023-02-23T08:40:01.843Z,15.90
2023-02-23T08:45:07.761Z,16.00
2023-02-23T08:50:14.969Z,16.10
2023-02-23T08:55:18.681Z,16.20
2023-02-23T09:00:22.905Z,16.20
2023-02-23T09:05:27.689Z,16.30
2023-02-23T09:10:32.279Z,16.40
2023-02-23T09:15:35.605Z,16.40
2023-02-23T09:20:42.886Z,16.50
2023-02-23T09:25:47.360Z,16.60
2023-02-23T09:30:50.714Z,16.70
2023-02-23T09:35:55.436Z,16.70
2023-02-23T09:40:58.810Z,16.90
2023-02-23T09:46:14.260Z,17.00
2023-02-23T09:51:22.759Z,17.10
2023-02-23T09:56:33.261Z,17.20
2023-02-23T10:02:00.137Z,17.30
2023-02-23T10:07:10.841Z,17.40
2023-02-23T10:12:21.048Z,17.60
2023-02-23T10:17:33.833Z,17.70
2023-02-23T10:22:40.781Z,17.90
2023-02-23T10:27:50.258Z,18.10
2023-02-23T10:33:00.604Z,18.20
2023-02-23T10:38:05.433Z,18.40
2023-02-23T10:43:08.909Z,18.60
2023-02-23T10:48:19.141Z,18.80
2023-02-23T10:53:26.862Z,18.90
2023-02-23T10:58:32.214Z,19.20
2023-02-23T11:03:40.111Z,19.40
2023-02-23T11:08:46.474Z,19.60
2023-02-23T11:13:51.470Z,19.80
2023-02-23T11:18:57.312Z,20.00
2023-02-23T11:24:16.777Z,20.10
2023-02-23T11:29:27.016Z,20.10
2023-02-23T11:34:32.353Z,20.20
2023-02-23T11:39:38.688Z,20.30
2023-02-23T11:44:42.431Z,20.40
2023-02-23T11:49:47.826Z,20.40
2023-02-23T11:54:57.321Z,20.50
2023-02-23T12:00:05.993Z,20.60
2023-02-23T12:05:21.319Z,20.70
2023-02-23T12:10:30.652Z,20.80
2023-02-23T12:15:41.852Z,20.80
2023-02-23T12:20:48.672Z,20.80
2023-02-23T12:25:59.716Z,20.90
2023-02-23T12:31:08.202Z,20.90
2023-02-23T12:36:22.268Z,20.90
2023-02-23T12:41:37.143Z,21.00
2023-02-23T12:46:48.386Z,21.00
2023-02-23T12:51:55.429Z,21.00
2023-02-23T12:57:13.248Z,21.00
2023-02-23T13:02:24.213Z,21.10
2023-02-23T13:07:39.335Z,21.10
2023-02-23T13:12:51.650Z,21.10
2023-02-23T13:18:01.648Z,21.10
2023-02-23T13:23:16.353Z,21.10
2023-02-23T13:28:29.414Z,21.10
2023-02-23T13:33:43.511Z,21.00
2023-02-23T13:38:59.890Z,21.00
2023-02-23T13:44:14.388Z,21.00
2023-02-23T13:49:28.844Z,21.00
2023-02-23T13:54:34.611Z,21.00
2023-02-23T13:59:45.508Z,21.00
2023-02-23T14:04:49.026Z,20.90
2023-02-23T14:09:56.813Z,20.90
2023-02-23T14:15:41.084Z,20.90
2023-02-23T14:20:53.467Z,20.80
2023-02-23T14:26:13.621Z,20.80
2023-02-23T14:31:35.784Z,20.80
2023-02-23T14:36:45.021Z,20.80
2023-02-23T14:41:51.914Z,20.80
2023-02-23T14:47:08.814Z,20.80
2023-02-23T14:52:20.918Z,20.80
2023-02-23T14:57:26.060Z,20.80
2023-02-23T15:02:32.112Z,20.80
2023-02-23T15:07:39.960Z,20.80
2023-02-23T15:12:43.402Z,20.70
2023-02-23T15:17:50.518Z,20.70
2023-02-23T15:22:57.662Z,20.70
2023-02-23T15:28:10.930Z,20.80
2023-02-23T15:33:19.496Z,20.80
2023-02-23T15:38:42.502Z,20.70
2023-02-23T15:43:46.776Z,20.70
2023-02-23T15:48:54.637Z,20.70
2023-02-23T15:53:58.420Z,20.70
2023-02-23T15:59:08.460Z,20.70
2023-02-23T16:04:19.461Z,20.60
2023-02-23T16:09:31.404Z,20.60
2023-02-23T16:14:43.668Z,20.60
2023-02-23T16:19:48.816Z,20.60
2023-02-23T16:25:03.080Z,20.60
2023-02-23T16:30:23.711Z,20.50
2023-02-23T16:35:37.940Z,20.50
2023-02-23T16:40:42.644Z,20.50
2023-02-23T16:45:46.770Z,20.40
2023-02-23T16:50:52.714Z,20.40
2023-02-23T16:56:01.304Z,20.40
2023-02-23T17:01:05.178Z,20.30
2023-02-23T17:06:11.186Z,20.30
2023-02-23T17:11:15.521Z,20.30
2023-02-23T17:16:20.102Z,20.20
2023-02-23T17:21:26.765Z,20.20
2023-02-23T17:26:33.070Z,20.20
2023-02-23T17:31:38.324Z,20.10
2023-02-23T17:36:44.498Z,20.00
2023-02-23T17:41:49.045Z,20.00
2023-02-23T17:46:53.313Z,20.00
2023-02-23T17:51:59.910Z,19.90
2023-02-23T17:57:04.601Z,19.90
2023-02-23T18:02:10.995Z,19.80
2023-02-23T18:07:24.900Z,19.70
2023-02-23T18:12:30.054Z,19.70
2023-02-23T18:17:37.937Z,19.70
2023-02-23T18:22:47.058Z,19.60
2023-02-23T18:27:56.324Z,19.60
2023-02-23T18:33:29.031Z,19.60
2023-02-23T18:38:41.663Z,19.60
2023-02-23T18:43:46.938Z,19.60
2023-02-23T18:48:55.163Z,19.50
2023-02-23T18:54:14.475Z,19.50
2023-02-23T18:59:23.515Z,19.50
2023-02-23T19:04:32.619Z,19.40
2023-02-23T19:09:55.133Z,19.40
2023-02-23T19:15:02.231Z,19.30
2023-02-23T19:20:15.950Z,19.30
2023-02-23T19:25:26.461Z,19.30
2023-02-23T19:30:34.602Z,19.30
2023-02-23T19:35:45.051Z,19.20
2023-02-23T19:40:52.376Z,19.20
2023-02-23T19:46:04.158Z,19.20
2023-02-23T19:51:12.218Z,19.10
2023-02-23T19:56:24.697Z,19.10
2023-02-23T20:01:31.730Z,19.10
2023-02-23T20:06:45.738Z,19.10
2023-02-23T20:12:01.474Z,19.00
2023-02-23T20:17:07.259Z,19.00
2023-02-23T20:22:13.892Z,19.00
2023-02-23T20:27:30.571Z,19.00
2023-02-23T20:32:35.030Z,18.90
2023-02-23T20:37:40.437Z,18.90
2023-02-23T20:42:49.404Z,18.90
2023-02-23T20:47:56.367Z,18.80
2023-02-23T20:53:02.986Z,18.80
2023-02-23T20:58:09.804Z,18.80
2023-02-23T21:03:16.098Z,18.70
2023-02-23T21:08:21.548Z,18.70
2023-02-23T21:13:29.057Z,18.70
2023-02-23T21:18:33.823Z,18.70
2023-02-23T21:23:39.163Z,18.70
2023-02-23T21:28:46.462Z,18.70
2023-02-23T21:33:50.924Z,18.60
2023-02-23T21:38:54.984Z,18.60
2023-02-23T21:44:03.525Z,18.60
2023-02-23T21:49:10.015Z,18.60
2023-02-23T21:54:13.793Z,18.60
2023-02-23T21:59:20.621Z,18.60
2023-02-23T22:04:23.960Z,18.60
2023-02-23T22:09:27.501Z,18.50
2023-02-23T22:14:32.217Z,18.60
2023-02-23T22:19:35.491Z,18.60
2023-02-23T22:24:39.124Z,18.50
2023-02-23T22:29:44.421Z,18.50
2023-02-23T22:34:47.838Z,18.50
2023-02-23T22:39:51.145Z,18.50
2023-02-23T22:44:55.874Z,18.50
2023-02-23T22:49:59.871Z,18.50
2023-02-23T22:55:04.080Z,18.40
2023-02-23T23:00:12.693Z,18.40
2023-02-23T23:05:16.864Z,18.40
2023-02-23T23:10:20.378Z,18.40
2023-02-23T23:15:25.077Z,18.40
2023-02-23T23:20:29.681Z,18.40
2023-02-23T23:25:33.017Z,18.40
2023-02-23T23:30:38.174Z,18.40
2023-02-23T23:35:42.761Z,18.40
2023-02-23T23:40:47.088Z,18.40
2023-02-23T23:45:52.082Z,18.30
2023-02-23T23:50:56.255Z,18.30
2023-02-23T23:56:06.392Z,18.30
